Time;durP1;ratioP1;P1;durP2;ratioP2;P2;SDS_P1;SDS_P2;PMS_P1;PMS_P2;Temp;Humidity;BMP_temperature;BMP_pressure;BME280_temperature;BME280_humidity;BME280_pressure;Samples;Min_cycle;Max_cycle;Signal;HPM_P1;HPM_P2
2024/02/05 00:00:24;;;;;;;32.90;31.20;;;;;;;;;;5022463;28;20463;-50
2024/02/05 00:02:50;;;;;;;31.00;29.40;;;;;;;;;;5021132;28;20095;-51
2024/02/05 00:05:16;;;;;;;32.40;30.70;;;;;;;;;;5021236;28;20037;-51
2024/02/05 00:07:41;;;;;;;30.75;29.15;;;;;;;;;;5020905;28;20025;-48
2024/02/05 00:10:07;;;;;;;30.15;28.55;;;;;;;;;;5022040;28;20045;-50
2024/02/05 00:12:33;;;;;;;30.88;29.27;;;;;;;;;;5020263;28;20033;-59
2024/02/05 00:14:59;;;;;;;31.00;29.40;;;;;;;;;;5021557;28;20342;-60
2024/02/05 00:17:25;;;;;;;32.45;30.75;;;;;;;;;;5021185;28;20041;-49
2024/02/05 00:19:50;;;;;;;31.52;29.88;;;;;;;;;;5019292;28;20455;-50
2024/02/05 00:22:15;;;;;;;31.05;29.45;;;;;;;;;;5021847;28;20648;-52
2024/02/05 00:24:41;;;;;;;31.85;30.23;;;;;;;;;;5020325;28;20030;-60
2024/02/05 00:27:07;;;;;;;31.75;30.13;;;;;;;;;;5020297;28;20120;-50
2024/02/05 00:29:32;;;;;;;32.45;30.75;;;;;;;;;;5020498;28;20043;-52
2024/02/05 00:31:58;;;;;;;32.47;30.77;;;;;;;;;;5020509;28;20120;-50
2024/02/05 00:34:23;;;;;;;32.33;30.63;;;;;;;;;;5021050;28;20030;-51
2024/02/05 00:36:48;;;;;;;32.72;31.02;;;;;;;;;;5021012;28;20148;-61
2024/02/05 00:39:14;;;;;;;31.67;30.05;;;;;;;;;;5019442;28;20029;-50
2024/02/05 00:41:39;;;;;;;32.65;30.95;;;;;;;;;;5019233;28;20033;-61
2024/02/05 00:44:04;;;;;;;33.33;31.63;;;;;;;;;;5021758;28;20048;-61
2024/02/05 00:46:30;;;;;;;32.95;31.25;;;;;;;;;;5020641;28;20095;-53
2024/02/05 00:48:56;;;;;;;34.33;32.55;;;;;;;;;;5019599;28;20506;-52
2024/02/05 00:51:22;;;;;;;33.63;31.92;;;;;;;;;;5020518;28;20467;-53
2024/02/05 00:53:47;;;;;;;34.08;32.33;;;;;;;;;;5023149;28;20044;-49
2024/02/05 00:56:13;;;;;;;34.58;32.78;;;;;;;;;;5022934;28;20384;-60
2024/02/05 00:58:38;;;;;;;35.03;33.22;;;;;;;;;;5019158;28;20522;-61
2024/02/05 01:01:04;;;;;;;34.28;32.50;;;;;;;;;;5017290;28;20041;-60
2024/02/05 01:03:30;;;;;;;33.35;31.65;;;;;;;;;;5019411;28;20037;-60
2024/02/05 01:05:56;;;;;;;33.60;31.88;;;;;;;;;;5018204;28;20340;-60
2024/02/05 01:08:21;;;;;;;35.30;33.50;;;;;;;;;;5018348;28;20435;-53
2024/02/05 01:10:47;;;;;;;32.00;30.33;;;;;;;;;;5018216;28;20026;-56
2024/02/05 01:13:12;;;;;;;35.20;33.40;;;;;;;;;;5019727;28;20041;-48
2024/02/05 01:15:37;;;;;;;34.47;32.70;;;;;;;;;;5019633;28;20045;-54
2024/02/05 01:18:04;;;;;;;33.65;31.88;;;;;;;;;;5021651;28;20034;-60
2024/02/05 01:20:29;;;;;;;34.42;32.65;;;;;;;;;;5019341;28;20063;-60
2024/02/05 01:22:54;;;;;;;33.60;31.90;;;;;;;;;;5018739;28;20037;-60
2024/02/05 01:25:20;;;;;;;31.83;30.17;;;;;;;;;;5017914;28;20040;-60
2024/02/05 01:27:45;;;;;;;33.97;32.22;;;;;;;;;;5017840;28;20044;-52
2024/02/05 01:30:11;;;;;;;32.47;30.77;;;;;;;;;;5020413;28;20033;-51
2024/02/05 01:32:37;;;;;;;33.78;32.03;;;;;;;;;;5017222;28;20458;-49
2024/02/05 01:35:03;;;;;;;33.42;31.73;;;;;;;;;;5015594;28;20038;-52
2024/02/05 01:37:29;;;;;;;32.63;30.92;;;;;;;;;;5016579;28;20364;-51
2024/02/05 01:39:55;;;;;;;32.95;31.08;;;;;;;;;;5019274;28;20037;-51
2024/02/05 01:42:20;;;;;;;33.63;31.92;;;;;;;;;;5021031;28;20604;-50
2024/02/05 01:44:45;;;;;;;33.53;31.83;;;;;;;;;;5021024;28;20071;-59
2024/02/05 01:47:11;;;;;;;34.28;32.50;;;;;;;;;;5018746;28;20029;-52
2024/02/05 01:49:37;;;;;;;32.95;31.25;;;;;;;;;;5018522;28;20025;-49
2024/02/05 01:52:09;;;;;;;32.13;30.45;;;;;;;;;;5019388;28;20084;-60
2024/02/05 01:54:36;;;;;;;32.45;30.75;;;;;;;;;;5018547;28;20033;-60
2024/02/05 01:57:05;;;;;;;33.45;31.75;;;;;;;;;;5019527;28;20041;-60
2024/02/05 01:59:31;;;;;;;33.08;31.38;;;;;;;;;;5018805;28;20596;-60
2024/02/05 02:01:56;;;;;;;32.08;30.08;;;;;;;;;;5018774;28;20030;-61
2024/02/05 02:04:22;;;;;;;31.60;30.00;;;;;;;;;;5018034;28;20469;-60
2024/02/05 02:06:49;;;;;;;31.27;29.67;;;;;;;;;;5019069;28;20301;-60
2024/02/05 02:09:16;;;;;;;31.65;30.00;;;;;;;;;;5018437;28;20655;-52
2024/02/05 02:11:41;;;;;;;33.90;32.15;;;;;;;;;;5017619;28;20038;-54
2024/02/05 02:14:08;;;;;;;32.20;30.55;;;;;;;;;;5018346;28;20048;-53
2024/02/05 02:16:34;;;;;;;32.90;31.20;;;;;;;;;;5018879;28;20478;-54
2024/02/05 02:19:04;;;;;;;32.85;31.15;;;;;;;;;;5015299;28;20060;-55
2024/02/05 02:21:33;;;;;;;31.58;29.95;;;;;;;;;;5018745;28;20030;-60
2024/02/05 02:23:59;;;;;;;32.67;30.98;;;;;;;;;;5018562;28;20464;-53
2024/02/05 02:26:26;;;;;;;30.88;29.27;;;;;;;;;;5017487;28;20898;-54
2024/02/05 02:28:52;;;;;;;31.58;29.95;;;;;;;;;;5021485;28;20168;-60
2024/02/05 02:31:21;;;;;;;31.65;30.02;;;;;;;;;;5018223;28;20116;-60
2024/02/05 02:34:07;;;;;;;33.22;31.52;;;;;;;;;;5019157;28;20099;-60
2024/02/05 02:36:40;;;;;;;33.03;31.33;;;;;;;;;;5022525;28;20037;-60
2024/02/05 02:39:16;;;;;;;32.55;30.85;;;;;;;;;;5020898;28;20050;-60
2024/02/05 02:41:43;;;;;;;32.85;31.15;;;;;;;;;;5020695;28;20054;-60
2024/02/05 02:44:10;;;;;;;32.70;31.00;;;;;;;;;;5021430;28;20029;-61
2024/02/05 02:46:35;;;;;;;31.42;29.83;;;;;;;;;;5022935;28;20439;-61
2024/02/05 02:49:01;;;;;;;31.20;29.60;;;;;;;;;;5023750;28;20052;-53
2024/02/05 02:51:27;;;;;;;32.38;30.67;;;;;;;;;;5022997;28;20029;-60
2024/02/05 02:53:53;;;;;;;31.77;30.15;;;;;;;;;;5022421;28;20049;-61
2024/02/05 02:56:18;;;;;;;31.95;30.30;;;;;;;;;;5022746;28;20083;-60
2024/02/05 02:58:44;;;;;;;33.40;31.67;;;;;;;;;;5021794;28;20056;-60
2024/02/05 03:01:09;;;;;;;32.70;31.00;;;;;;;;;;5022677;28;20274;-60
2024/02/05 03:03:35;;;;;;;30.73;29.13;;;;;;;;;;5025617;28;20033;-60
2024/02/05 03:06:01;;;;;;;31.58;29.92;;;;;;;;;;5022383;28;20033;-59
2024/02/05 03:08:26;;;;;;;31.08;29.48;;;;;;;;;;5021486;28;20471;-59
2024/02/05 03:10:51;;;;;;;33.70;31.98;;;;;;;;;;5024715;28;20475;-60
2024/02/05 03:13:17;;;;;;;33.08;31.38;;;;;;;;;;5022533;28;20025;-60
2024/02/05 03:15:42;;;;;;;31.67;30.05;;;;;;;;;;5020798;28;20030;-60
2024/02/05 03:18:09;;;;;;;31.27;29.67;;;;;;;;;;5023851;28;20506;-60
2024/02/05 03:20:35;;;;;;;32.13;30.45;;;;;;;;;;5020933;28;20406;-60
2024/02/05 03:23:03;;;;;;;30.45;28.85;;;;;;;;;;5021909;28;20045;-60
2024/02/05 03:25:28;;;;;;;33.53;31.80;;;;;;;;;;5025427;28;20033;-60
2024/02/05 03:27:57;;;;;;;30.75;29.15;;;;;;;;;;5023966;28;20115;-60
2024/02/05 03:30:23;;;;;;;31.25;29.65;;;;;;;;;;5021921;28;20049;-60
2024/02/05 03:32:49;;;;;;;32.70;30.80;;;;;;;;;;5021672;28;20025;-60
2024/02/05 03:35:15;;;;;;;31.30;29.52;;;;;;;;;;5020425;28;20360;-60
2024/02/05 03:37:44;;;;;;;31.27;29.67;;;;;;;;;;5022075;28;20462;-53
2024/02/05 03:40:11;;;;;;;31.13;29.52;;;;;;;;;;5019628;28;20065;-50
2024/02/05 03:42:36;;;;;;;30.55;28.95;;;;;;;;;;5022661;28;20138;-49
2024/02/05 03:45:02;;;;;;;31.13;29.52;;;;;;;;;;5022474;28;20073;-52
2024/02/05 03:47:27;;;;;;;31.85;30.23;;;;;;;;;;5022489;28;20106;-49
2024/02/05 03:49:53;;;;;;;29.58;28.08;;;;;;;;;;5023452;28;20352;-48
2024/02/05 03:52:18;;;;;;;31.52;29.90;;;;;;;;;;5020759;28;20463;-51
2024/02/05 03:54:46;;;;;;;33.08;30.38;;;;;;;;;;5025373;28;20371;-51
2024/02/05 03:57:12;;;;;;;32.00;30.25;;;;;;;;;;5020714;28;20092;-60
2024/02/05 03:59:37;;;;;;;32.00;30.35;;;;;;;;;;5022481;28;20053;-52
2024/02/05 04:02:03;;;;;;;30.48;28.88;;;;;;;;;;5025239;28;20317;-60
2024/02/05 04:04:28;;;;;;;31.08;29.48;;;;;;;;;;5021496;28;20084;-60
2024/02/05 04:06:53;;;;;;;33.05;31.35;;;;;;;;;;5023015;28;20037;-51
2024/02/05 04:09:19;;;;;;;30.08;28.48;;;;;;;;;;5021328;28;20030;-60
2024/02/05 04:11:44;;;;;;;30.45;28.85;;;;;;;;;;5018524;28;20144;-49
2024/02/05 04:14:10;;;;;;;30.30;28.70;;;;;;;;;;5020852;28;20103;-60
2024/02/05 04:16:36;;;;;;;30.80;29.20;;;;;;;;;;5024085;28;20463;-60
2024/02/05 04:19:02;;;;;;;33.22;31.42;;;;;;;;;;5020845;28;20033;-49
2024/02/05 04:21:27;;;;;;;32.35;30.67;;;;;;;;;;5021676;28;20560;-49
2024/02/05 04:23:53;;;;;;;30.55;28.95;;;;;;;;;;5021334;28;20414;-60
2024/02/05 04:26:18;;;;;;;30.75;29.15;;;;;;;;;;5020556;28;21556;-60
2024/02/05 04:28:44;;;;;;;33.13;31.42;;;;;;;;;;5021371;28;20035;-60
2024/02/05 04:31:10;;;;;;;31.65;30.02;;;;;;;;;;5019712;28;20035;-52
2024/02/05 04:33:36;;;;;;;31.05;29.45;;;;;;;;;;5019903;28;20041;-59
2024/02/05 04:36:01;;;;;;;30.88;29.08;;;;;;;;;;5020774;28;20074;-59
2024/02/05 04:38:26;;;;;;;30.48;28.88;;;;;;;;;;5020480;28;20036;-60
2024/02/05 04:40:52;;;;;;;32.33;30.65;;;;;;;;;;5020772;28;20060;-59
2024/02/05 04:43:17;;;;;;;31.33;29.73;;;;;;;;;;5018894;28;20104;-60
2024/02/05 04:45:43;;;;;;;31.85;30.20;;;;;;;;;;5021187;28;20128;-60
2024/02/05 04:48:08;;;;;;;31.83;30.17;;;;;;;;;;5036324;28;20037;-50
2024/02/05 04:50:34;;;;;;;32.00;30.33;;;;;;;;;;5021166;28;20095;-50
2024/02/05 04:52:59;;;;;;;31.85;30.15;;;;;;;;;;5020725;28;20041;-60
2024/02/05 04:55:25;;;;;;;29.67;28.13;;;;;;;;;;5020263;28;20033;-49
2024/02/05 04:57:50;;;;;;;31.30;29.60;;;;;;;;;;5020159;28;20124;-59
2024/02/05 05:00:17;;;;;;;30.73;29.13;;;;;;;;;;5018692;28;20033;-60
2024/02/05 05:02:43;;;;;;;33.85;32.13;;;;;;;;;;5020877;28;20371;-50
2024/02/05 05:05:08;;;;;;;32.25;30.50;;;;;;;;;;5019117;28;20038;-61
2024/02/05 05:07:34;;;;;;;31.58;29.95;;;;;;;;;;5023512;28;20115;-51
2024/02/05 05:10:01;;;;;;;31.48;29.77;;;;;;;;;;5019734;28;20482;-60
2024/02/05 05:12:27;;;;;;;33.05;31.35;;;;;;;;;;5018636;28;20253;-52
2024/02/05 05:14:52;;;;;;;32.97;31.27;;;;;;;;;;5021790;28;20041;-60
2024/02/05 05:17:18;;;;;;;31.25;29.65;;;;;;;;;;5019287;28;20037;-60
2024/02/05 05:19:43;;;;;;;31.63;30.00;;;;;;;;;;5021623;28;20040;-60
2024/02/05 05:22:09;;;;;;;33.63;31.90;;;;;;;;;;5018308;28;20059;-50
2024/02/05 05:24:34;;;;;;;32.03;30.38;;;;;;;;;;5037448;28;20113;-61
2024/02/05 05:26:59;;;;;;;30.73;29.13;;;;;;;;;;5018044;28;20136;-59
2024/02/05 05:29:25;;;;;;;31.00;29.40;;;;;;;;;;5020668;28;20037;-61
2024/02/05 05:31:50;;;;;;;31.70;30.02;;;;;;;;;;5018944;28;20125;-60
2024/02/05 05:34:16;;;;;;;31.15;29.55;;;;;;;;;;5016716;28;22258;-60
2024/02/05 05:36:41;;;;;;;31.00;29.30;;;;;;;;;;5019771;28;20048;-61
2024/02/05 05:39:07;;;;;;;30.00;28.40;;;;;;;;;;5018135;28;20041;-52
2024/02/05 05:41:35;;;;;;;30.85;29.25;;;;;;;;;;5019846;28;20025;-60
2024/02/05 05:44:02;;;;;;;30.95;29.35;;;;;;;;;;5017926;28;20087;-53
2024/02/05 05:46:28;;;;;;;31.67;30.05;;;;;;;;;;5018906;28;20649;-60
2024/02/05 05:48:53;;;;;;;31.42;29.40;;;;;;;;;;5016877;28;20057;-53
2024/02/05 05:51:18;;;;;;;31.88;30.23;;;;;;;;;;5017194;28;20034;-51
2024/02/05 05:53:44;;;;;;;31.10;29.50;;;;;;;;;;5019432;28;20049;-51
2024/02/05 05:56:09;;;;;;;30.90;29.30;;;;;;;;;;5048863;28;20030;-50
2024/02/05 05:58:34;;;;;;;31.48;29.67;;;;;;;;;;5020057;28;20759;-60
2024/02/05 06:01:05;;;;;;;31.48;29.88;;;;;;;;;;5019874;28;20183;-61
2024/02/05 06:03:30;;;;;;;30.83;29.23;;;;;;;;;;5020865;28;20046;-54
2024/02/05 06:05:57;;;;;;;33.20;31.08;;;;;;;;;;5018281;28;20041;-54
2024/02/05 06:08:22;;;;;;;30.15;28.55;;;;;;;;;;5019989;28;20079;-60
2024/02/05 06:10:48;;;;;;;31.10;29.50;;;;;;;;;;5025314;28;20041;-59
2024/02/05 06:13:13;;;;;;;30.42;28.83;;;;;;;;;;5025585;28;20131;-54
2024/02/05 06:15:39;;;;;;;30.67;29.08;;;;;;;;;;5019352;28;20061;-53
2024/02/05 06:18:04;;;;;;;30.88;29.17;;;;;;;;;;5024728;28;20589;-54
2024/02/05 06:20:30;;;;;;;32.40;30.70;;;;;;;;;;5026450;28;20112;-53
2024/02/05 06:22:55;;;;;;;31.40;29.80;;;;;;;;;;5026274;28;20179;-60
2024/02/05 06:25:20;;;;;;;31.70;30.02;;;;;;;;;;5021569;28;20127;-52
2024/02/05 06:27:46;;;;;;;31.58;29.67;;;;;;;;;;5026154;28;20041;-53
2024/02/05 06:30:12;;;;;;;32.10;30.05;;;;;;;;;;5024497;28;20034;-54
2024/02/05 06:32:37;;;;;;;31.85;30.17;;;;;;;;;;5026361;28;20090;-59
2024/02/05 06:35:03;;;;;;;30.05;28.45;;;;;;;;;;5025275;28;20121;-59
2024/02/05 06:37:28;;;;;;;31.60;30.00;;;;;;;;;;5024491;28;20367;-59
2024/02/05 06:39:54;;;;;;;32.38;30.55;;;;;;;;;;5025705;28;20045;-60
2024/02/05 06:42:21;;;;;;;32.58;30.52;;;;;;;;;;5024998;28;20383;-59
2024/02/05 06:44:47;;;;;;;30.25;28.63;;;;;;;;;;5025028;28;20042;-54
2024/02/05 06:47:12;;;;;;;30.55;28.95;;;;;;;;;;5023162;28;20436;-53
2024/02/05 06:49:38;;;;;;;31.77;30.13;;;;;;;;;;5026326;28;20232;-54
2024/02/05 06:52:05;;;;;;;29.92;28.35;;;;;;;;;;5024708;28;20025;-55
2024/02/05 06:54:30;;;;;;;28.33;26.83;;;;;;;;;;5022069;28;20032;-59
2024/02/05 06:56:56;;;;;;;32.25;29.88;;;;;;;;;;5023497;28;20034;-60
2024/02/05 06:59:21;;;;;;;31.75;30.05;;;;;;;;;;5022428;28;20065;-60
2024/02/05 07:01:46;;;;;;;31.08;29.48;;;;;;;;;;5025661;28;20072;-60
2024/02/05 07:04:12;;;;;;;30.02;28.45;;;;;;;;;;5022519;28;20367;-50
2024/02/05 07:06:37;;;;;;;31.52;29.90;;;;;;;;;;5026742;28;20112;-60
2024/02/05 07:09:03;;;;;;;32.78;31.08;;;;;;;;;;5023955;28;20403;-60
2024/02/05 07:11:28;;;;;;;32.30;30.60;;;;;;;;;;5020182;28;20509;-61
2024/02/05 07:13:53;;;;;;;30.50;28.90;;;;;;;;;;5026687;28;20052;-59
2024/02/05 07:16:21;;;;;;;31.02;29.38;;;;;;;;;;5024318;28;20037;-49
2024/02/05 07:18:46;;;;;;;32.03;30.33;;;;;;;;;;5024382;28;20057;-51
2024/02/05 07:21:12;;;;;;;32.78;31.08;;;;;;;;;;5050580;28;20041;-53
2024/02/05 07:23:38;;;;;;;30.48;28.88;;;;;;;;;;5021145;28;20033;-51
2024/02/05 07:26:03;;;;;;;31.08;29.48;;;;;;;;;;5020736;28;20045;-53
2024/02/05 07:28:30;;;;;;;30.25;28.65;;;;;;;;;;5018367;28;20817;-60
2024/02/05 07:30:55;;;;;;;32.08;30.25;;;;;;;;;;5022967;28;20832;-61
2024/02/05 07:33:21;;;;;;;31.98;30.27;;;;;;;;;;5020036;28;20084;-51
2024/02/05 07:35:46;;;;;;;32.13;30.42;;;;;;;;;;5023118;28;20029;-52
2024/02/05 07:38:12;;;;;;;30.70;29.10;;;;;;;;;;5019357;28;20034;-60
2024/02/05 07:40:37;;;;;;;32.03;30.35;;;;;;;;;;5020775;28;20103;-55
2024/02/05 07:43:03;;;;;;;29.98;28.40;;;;;;;;;;5021026;28;20124;-53
2024/02/05 07:45:30;;;;;;;32.17;30.48;;;;;;;;;;5019585;28;20049;-55
2024/02/05 07:47:55;;;;;;;32.72;31.02;;;;;;;;;;5021922;28;20045;-53
2024/02/05 07:50:21;;;;;;;29.92;28.33;;;;;;;;;;5019805;28;20038;-51
2024/02/05 07:52:46;;;;;;;29.83;27.92;;;;;;;;;;5020738;28;20017;-60
2024/02/05 07:55:11;;;;;;;31.38;29.73;;;;;;;;;;5019275;28;20349;-60
2024/02/05 07:57:37;;;;;;;32.85;31.15;;;;;;;;;;5019343;28;20668;-60
2024/02/05 08:00:02;;;;;;;31.35;29.75;;;;;;;;;;5020318;28;20068;-60
2024/02/05 08:02:28;;;;;;;32.90;31.20;;;;;;;;;;5020567;28;20029;-55
2024/02/05 08:04:54;;;;;;;31.17;29.38;;;;;;;;;;5019902;28;20427;-50
2024/02/05 08:07:19;;;;;;;32.10;30.40;;;;;;;;;;5022378;28;20121;-61
2024/02/05 08:09:45;;;;;;;32.08;30.33;;;;;;;;;;5019539;28;20136;-60
2024/02/05 08:12:12;;;;;;;30.98;29.38;;;;;;;;;;5017401;28;20037;-60
2024/02/05 08:14:37;;;;;;;32.78;30.88;;;;;;;;;;5017497;28;20371;-60
2024/02/05 08:17:03;;;;;;;32.08;30.38;;;;;;;;;;5017737;28;20037;-60
2024/02/05 08:19:28;;;;;;;32.75;30.83;;;;;;;;;;5019814;28;20497;-53
2024/02/05 08:21:54;;;;;;;30.48;28.73;;;;;;;;;;5020569;28;20503;-51
2024/02/05 08:24:19;;;;;;;31.42;29.83;;;;;;;;;;5017128;28;20041;-53
2024/02/05 08:26:45;;;;;;;31.48;29.73;;;;;;;;;;5018861;28;20033;-51
2024/02/05 08:29:11;;;;;;;31.95;29.88;;;;;;;;;;5017854;28;20364;-49
2024/02/05 08:31:36;;;;;;;33.42;31.15;;;;;;;;;;5017494;28;20218;-50
2024/02/05 08:34:05;;;;;;;30.98;29.27;;;;;;;;;;5019850;28;20041;-59
2024/02/05 08:36:32;;;;;;;33.13;31.25;;;;;;;;;;5020065;28;20178;-60
2024/02/05 08:38:57;;;;;;;29.35;27.80;;;;;;;;;;5018690;28;20038;-59
2024/02/05 08:41:22;;;;;;;30.38;28.77;;;;;;;;;;5017366;28;20471;-61
2024/02/05 08:43:48;;;;;;;29.60;28.00;;;;;;;;;;5019263;28;20037;-60
2024/02/05 08:46:13;;;;;;;31.08;29.42;;;;;;;;;;5019444;28;20029;-60
2024/02/05 08:48:39;;;;;;;29.83;28.23;;;;;;;;;;5018545;28;20871;-60
2024/02/05 08:51:05;;;;;;;31.42;29.60;;;;;;;;;;5021998;28;20450;-52
2024/02/05 08:53:30;;;;;;;31.05;29.45;;;;;;;;;;5018115;28;20034;-53
2024/02/05 08:55:56;;;;;;;30.50;28.90;;;;;;;;;;5021094;28;20104;-52
2024/02/05 08:58:22;;;;;;;30.77;29.17;;;;;;;;;;5018495;28;20037;-60
2024/02/05 09:00:48;;;;;;;28.02;26.52;;;;;;;;;;5019951;28;20119;-60
2024/02/05 09:03:14;;;;;;;31.80;29.50;;;;;;;;;;5023175;28;20047;-58
2024/02/05 09:05:39;;;;;;;31.52;29.73;;;;;;;;;;5018818;28;20037;-60
2024/02/05 09:08:06;;;;;;;28.65;27.15;;;;;;;;;;5019691;28;20046;-60
2024/02/05 09:10:31;;;;;;;30.02;28.42;;;;;;;;;;5016541;28;20091;-54
2024/02/05 09:12:56;;;;;;;31.58;29.90;;;;;;;;;;5020457;28;20029;-55
2024/02/05 09:15:22;;;;;;;30.92;29.33;;;;;;;;;;5016910;28;20060;-52
2024/02/05 09:17:47;;;;;;;30.98;29.13;;;;;;;;;;5019288;28;20037;-60
2024/02/05 09:20:13;;;;;;;29.73;28.13;;;;;;;;;;5017667;28;20410;-61
2024/02/05 09:22:39;;;;;;;31.00;28.88;;;;;;;;;;5014900;28;20645;-53
2024/02/05 09:25:05;;;;;;;30.38;28.77;;;;;;;;;;5019342;28;20349;-55
2024/02/05 09:27:32;;;;;;;31.38;29.75;;;;;;;;;;5017333;28;20052;-61
2024/02/05 09:29:57;;;;;;;32.00;30.15;;;;;;;;;;5020921;28;20037;-61
2024/02/05 09:32:22;;;;;;;32.92;31.05;;;;;;;;;;5018291;28;20348;-61
2024/02/05 09:34:48;;;;;;;29.10;27.50;;;;;;;;;;5017629;28;20347;-60
2024/02/05 09:37:13;;;;;;;29.83;28.05;;;;;;;;;;5018848;28;20517;-60
2024/02/05 09:39:38;;;;;;;31.80;29.90;;;;;;;;;;5016370;28;20538;-53
2024/02/05 09:42:09;;;;;;;32.72;30.88;;;;;;;;;;5016966;28;20030;-55
2024/02/05 09:44:38;;;;;;;33.13;30.05;;;;;;;;;;5019917;28;20472;-53
2024/02/05 09:47:06;;;;;;;29.88;28.27;;;;;;;;;;5018249;28;20033;-60
2024/02/05 09:49:31;;;;;;;31.25;29.63;;;;;;;;;;5018117;28;20040;-60
2024/02/05 09:51:59;;;;;;;31.13;29.13;;;;;;;;;;5022255;28;20034;-54
2024/02/05 09:54:26;;;;;;;30.88;29.27;;;;;;;;;;5017744;28;20383;-60
2024/02/05 09:56:51;;;;;;;32.45;30.55;;;;;;;;;;5020341;28;20605;-60
2024/02/05 09:59:17;;;;;;;29.20;27.70;;;;;;;;;;5017759;28;20314;-60
2024/02/05 10:01:44;;;;;;;31.42;29.63;;;;;;;;;;5017613;28;20087;-60
2024/02/05 10:04:12;;;;;;;32.47;30.60;;;;;;;;;;5019272;28;20124;-55
2024/02/05 10:06:40;;;;;;;32.10;30.30;;;;;;;;;;5018710;28;20479;-50
2024/02/05 10:09:07;;;;;;;32.08;30.17;;;;;;;;;;5017517;28;20048;-53
2024/02/05 10:11:35;;;;;;;31.85;29.52;;;;;;;;;;5017178;28;20065;-60
2024/02/05 10:14:01;;;;;;;31.05;29.45;;;;;;;;;;5016079;28;20196;-55
2024/02/05 10:16:26;;;;;;;31.55;29.83;;;;;;;;;;5022396;28;20101;-60
2024/02/05 10:18:51;;;;;;;32.97;31.27;;;;;;;;;;5016319;28;20518;-51
2024/02/05 10:21:17;;;;;;;35.78;33.88;;;;;;;;;;5019837;28;20041;-55
2024/02/05 10:23:53;;;;;;;34.45;32.55;;;;;;;;;;5016535;28;20045;-60
2024/02/05 10:26:19;;;;;;;33.67;31.88;;;;;;;;;;5018117;28;20064;-54
2024/02/05 10:28:44;;;;;;;36.70;34.60;;;;;;;;;;5017592;28;20111;-54
2024/02/05 10:31:13;;;;;;;33.53;31.65;;;;;;;;;;5018572;28;20033;-55
2024/02/05 10:33:39;;;;;;;34.13;32.33;;;;;;;;;;5018139;28;20056;-53
2024/02/05 10:36:05;;;;;;;35.00;33.05;;;;;;;;;;5019135;28;20399;-60
2024/02/05 10:38:35;;;;;;;35.53;33.63;;;;;;;;;;5021275;28;21135;-55
2024/02/05 10:41:00;;;;;;;37.78;35.78;;;;;;;;;;5019394;28;20029;-61
2024/02/05 10:43:26;;;;;;;35.65;33.35;;;;;;;;;;5018798;28;20383;-61
2024/02/05 10:45:56;;;;;;;34.60;32.80;;;;;;;;;;5021615;28;20459;-54
2024/02/05 10:48:23;;;;;;;36.58;34.67;;;;;;;;;;5019239;28;20041;-55
2024/02/05 10:50:50;;;;;;;35.25;33.45;;;;;;;;;;5018303;28;20033;-61
2024/02/05 10:53:15;;;;;;;35.10;33.30;;;;;;;;;;5017681;28;20058;-60
2024/02/05 10:55:42;;;;;;;34.88;32.97;;;;;;;;;;5018884;28;20077;-61
2024/02/05 10:58:08;;;;;;;32.38;30.65;;;;;;;;;;5022707;28;20029;-61
2024/02/05 11:00:33;;;;;;;33.47;31.67;;;;;;;;;;5023160;28;20060;-61
2024/02/05 11:03:08;;;;;;;32.88;31.13;;;;;;;;;;5023731;28;20128;-54
2024/02/05 11:05:35;;;;;;;31.85;30.15;;;;;;;;;;5018465;28;20048;-61
2024/02/05 11:08:03;;;;;;;36.20;34.33;;;;;;;;;;5023011;28;20088;-61
2024/02/05 11:10:30;;;;;;;39.50;37.40;;;;;;;;;;5023320;28;20358;-61
2024/02/05 11:12:59;;;;;;;41.60;39.45;;;;;;;;;;5024172;28;20095;-61
2024/02/05 11:15:29;;;;;;;39.55;37.10;;;;;;;;;;5023866;28;20033;-61
2024/02/05 11:17:57;;;;;;;37.10;35.10;;;;;;;;;;5022687;28;20041;-54
2024/02/05 11:20:25;;;;;;;34.45;32.10;;;;;;;;;;5022202;28;20452;-55
2024/02/05 11:22:51;;;;;;;34.08;32.28;;;;;;;;;;5021466;28;20044;-56
2024/02/05 11:25:17;;;;;;;37.88;35.88;;;;;;;;;;5016748;28;20034;-56
2024/02/05 11:27:43;;;;;;;34.38;32.58;;;;;;;;;;5018798;28;20030;-56
2024/02/05 11:30:09;;;;;;;34.70;32.83;;;;;;;;;;5020007;28;20026;-56
2024/02/05 11:32:34;;;;;;;34.28;32.47;;;;;;;;;;5022008;28;20033;-56
2024/02/05 11:35:00;;;;;;;32.15;30.45;;;;;;;;;;5021606;28;20314;-61
2024/02/05 11:37:27;;;;;;;33.40;30.50;;;;;;;;;;5024264;28;20428;-62
2024/02/05 11:39:56;;;;;;;28.75;26.92;;;;;;;;;;5021687;28;20037;-62
2024/02/05 11:42:21;;;;;;;29.08;27.58;;;;;;;;;;5020806;28;20036;-58
2024/02/05 11:44:48;;;;;;;30.77;29.17;;;;;;;;;;5022631;28;20124;-57
2024/02/05 11:47:13;;;;;;;28.75;27.25;;;;;;;;;;5022341;28;20033;-58
2024/02/05 11:49:39;;;;;;;32.47;30.52;;;;;;;;;;5021306;28;20040;-55
2024/02/05 11:52:05;;;;;;;33.75;31.85;;;;;;;;;;5021524;28;20037;-60
2024/02/05 11:54:31;;;;;;;32.35;30.60;;;;;;;;;;5020578;28;20280;-62
2024/02/05 11:56:57;;;;;;;31.20;29.50;;;;;;;;;;5021154;28;20415;-62
2024/02/05 11:59:23;;;;;;;30.42;28.83;;;;;;;;;;5019390;28;20038;-62
2024/02/05 12:01:49;;;;;;;34.08;31.83;;;;;;;;;;5022794;28;20021;-54
2024/02/05 12:04:15;;;;;;;31.10;29.40;;;;;;;;;;5019254;28;20664;-54
2024/02/05 12:06:41;;;;;;;29.75;28.20;;;;;;;;;;5020186;28;20292;-61
2024/02/05 12:09:07;;;;;;;28.50;27.00;;;;;;;;;;5022421;28;20045;-61
2024/02/05 12:11:36;;;;;;;30.63;28.70;;;;;;;;;;5020369;28;20096;-57
2024/02/05 12:14:02;;;;;;;27.42;25.92;;;;;;;;;;5021361;28;20044;-60
2024/02/05 12:16:30;;;;;;;24.90;23.60;;;;;;;;;;5018116;28;20037;-57
2024/02/05 12:18:55;;;;;;;29.00;27.38;;;;;;;;;;5022299;28;20324;-61
2024/02/05 12:21:21;;;;;;;26.88;25.23;;;;;;;;;;5019310;28;20040;-56
2024/02/05 12:23:46;;;;;;;30.90;28.95;;;;;;;;;;5022734;28;20463;-57
2024/02/05 12:26:12;;;;;;;28.70;27.20;;;;;;;;;;5020163;28;20065;-56
2024/02/05 12:28:39;;;;;;;27.83;26.33;;;;;;;;;;5019587;28;20225;-57
2024/02/05 12:31:04;;;;;;;28.17;26.67;;;;;;;;;;5020707;28;20374;-57
2024/02/05 12:33:29;;;;;;;31.15;29.17;;;;;;;;;;5020264;28;20030;-57
2024/02/05 12:36:02;;;;;;;29.05;27.52;;;;;;;;;;5019602;28;20447;-57
2024/02/05 12:38:27;;;;;;;31.90;30.20;;;;;;;;;;5022267;28;20363;-57
2024/02/05 12:40:54;;;;;;;29.20;27.52;;;;;;;;;;5019360;28;20037;-61
2024/02/05 12:43:24;;;;;;;26.58;25.05;;;;;;;;;;5021022;28;20151;-54
2024/02/05 12:45:51;;;;;;;27.02;25.52;;;;;;;;;;5019826;28;20029;-61
2024/02/05 12:48:17;;;;;;;25.17;23.73;;;;;;;;;;5019898;28;20372;-61
2024/02/05 12:50:42;;;;;;;24.77;23.48;;;;;;;;;;5018669;28;20103;-61
2024/02/05 12:53:09;;;;;;;27.25;25.73;;;;;;;;;;5019468;28;20449;-60
2024/02/05 12:55:34;;;;;;;26.77;25.23;;;;;;;;;;5021001;28;20126;-61
2024/02/05 12:58:00;;;;;;;25.38;23.98;;;;;;;;;;5019592;28;20079;-60
2024/02/05 13:00:26;;;;;;;29.10;23.20;;;;;;;;;;5020352;28;20041;-60
2024/02/05 13:03:01;;;;;;;24.77;23.38;;;;;;;;;;5018805;28;20037;-60
2024/02/05 13:05:27;;;;;;;23.60;22.30;;;;;;;;;;5018539;28;20108;-60
2024/02/05 13:07:53;;;;;;;23.85;22.40;;;;;;;;;;5018988;28;20116;-61
2024/02/05 13:10:20;;;;;;;25.77;24.27;;;;;;;;;;5016913;28;20484;-61
2024/02/05 13:12:46;;;;;;;25.52;24.17;;;;;;;;;;5016154;28;20470;-60
2024/02/05 13:15:11;;;;;;;24.17;22.88;;;;;;;;;;5019806;28;20073;-60
2024/02/05 13:17:39;;;;;;;26.20;24.80;;;;;;;;;;5018930;28;20033;-60
2024/02/05 13:20:06;;;;;;;24.33;22.88;;;;;;;;;;5018496;28;20064;-61
2024/02/05 13:22:32;;;;;;;24.38;22.88;;;;;;;;;;5018411;28;20034;-61
2024/02/05 13:24:57;;;;;;;26.58;25.17;;;;;;;;;;5018238;28;20129;-60
2024/02/05 13:27:23;;;;;;;28.05;26.52;;;;;;;;;;5016806;28;20120;-60
2024/02/05 13:29:49;;;;;;;28.42;26.88;;;;;;;;;;5020512;28;20454;-60
2024/02/05 13:32:14;;;;;;;26.48;24.90;;;;;;;;;;5018112;28;20055;-60
2024/02/05 13:34:42;;;;;;;26.75;25.35;;;;;;;;;;5021203;28;20109;-60
2024/02/05 13:37:09;;;;;;;27.13;25.65;;;;;;;;;;5017856;28;20025;-60
2024/02/05 13:39:34;;;;;;;27.45;25.73;;;;;;;;;;5017630;28;20124;-61
2024/02/05 13:42:03;;;;;;;26.90;25.50;;;;;;;;;;5018532;28;20400;-60
2024/02/05 13:44:29;;;;;;;27.17;25.75;;;;;;;;;;5019557;28;20038;-60
2024/02/05 13:46:55;;;;;;;27.25;25.20;;;;;;;;;;5020186;28;20056;-59
2024/02/05 13:49:21;;;;;;;28.42;26.25;;;;;;;;;;5018382;28;20068;-60
2024/02/05 13:51:46;;;;;;;24.42;23.13;;;;;;;;;;5019412;28;20363;-60
2024/02/05 13:54:12;;;;;;;25.05;23.65;;;;;;;;;;5017343;28;20069;-60
2024/02/05 13:56:38;;;;;;;25.60;24.17;;;;;;;;;;5018388;28;20122;-60
2024/02/05 13:59:04;;;;;;;25.42;24.02;;;;;;;;;;5019666;28;20045;-60
2024/02/05 14:01:29;;;;;;;25.10;23.35;;;;;;;;;;5017044;28;20065;-60
2024/02/05 14:03:55;;;;;;;27.55;25.98;;;;;;;;;;5017487;28;20137;-59
2024/02/05 14:06:21;;;;;;;23.98;22.67;;;;;;;;;;5019352;28;20069;-60
2024/02/05 14:08:47;;;;;;;24.65;23.15;;;;;;;;;;5021555;28;20948;-60